Time;durP1;ratioP1;P1;durP2;ratioP2;P2;SDS_P1;SDS_P2;PMS_P1;PMS_P2;Temp;Humidity;BMP_temperature;BMP_pressure;BME280_temperature;BME280_humidity;BME280_pressure;Samples;Min_cycle;Max_cycle;Signal;HPM_P1;HPM_P2
2022/04/17 00:01:10;;;;;;;3.70;2.10;;;;;;;;;;5108506;28;20486;-69
2022/04/17 00:03:38;;;;;;;6.72;2.05;;;;;;;;;;5108554;28;20519;-69
2022/04/17 00:06:05;;;;;;;4.45;2.45;;;;;;;;;;5108727;28;20024;-68
2022/04/17 00:08:31;;;;;;;3.92;2.10;;;;;;;;;;5111149;28;20541;-68
2022/04/17 00:10:58;;;;;;;3.63;2.08;;;;;;;;;;5113365;28;20028;-68
2022/04/17 00:13:25;;;;;;;5.07;2.65;;;;;;;;;;5113520;28;20027;-68
2022/04/17 00:15:52;;;;;;;6.07;3.30;;;;;;;;;;5113559;28;20031;-67
2022/04/17 00:18:18;;;;;;;9.52;3.38;;;;;;;;;;5113056;28;20023;-68
2022/04/17 00:20:45;;;;;;;7.30;3.83;;;;;;;;;;5111996;28;20551;-68
2022/04/17 00:23:12;;;;;;;9.60;4.18;;;;;;;;;;5107833;28;20493;-68
2022/04/17 00:25:38;;;;;;;8.07;4.18;;;;;;;;;;5108263;28;20031;-68
2022/04/17 00:28:05;;;;;;;6.43;3.63;;;;;;;;;;5107900;28;20118;-68
2022/04/17 00:30:32;;;;;;;7.78;4.03;;;;;;;;;;5107958;28;20030;-68
2022/04/17 00:32:59;;;;;;;5.57;3.72;;;;;;;;;;5110005;28;20027;-67
2022/04/17 00:35:26;;;;;;;5.90;4.22;;;;;;;;;;5112978;28;20031;-68
2022/04/17 00:37:52;;;;;;;9.55;4.28;;;;;;;;;;5112662;28;20032;-67
2022/04/17 00:40:19;;;;;;;6.85;4.18;;;;;;;;;;5112682;28;20027;-68
2022/04/17 00:42:46;;;;;;;9.20;4.20;;;;;;;;;;5112522;28;20031;-68
2022/04/17 00:45:14;;;;;;;10.50;4.30;;;;;;;;;;5112749;28;20020;-68
2022/04/17 00:47:41;;;;;;;8.02;4.25;;;;;;;;;;5107840;28;20019;-68
2022/04/17 00:50:08;;;;;;;8.38;3.83;;;;;;;;;;5107793;28;20027;-68
2022/04/17 00:52:35;;;;;;;9.07;4.88;;;;;;;;;;5105929;28;20028;-67
2022/04/17 00:55:04;;;;;;;6.78;4.40;;;;;;;;;;5107425;28;20031;-67
2022/04/17 00:57:31;;;;;;;9.05;4.03;;;;;;;;;;5087885;28;20032;-68
2022/04/17 00:59:58;;;;;;;6.88;3.80;;;;;;;;;;5092032;28;20416;-68
2022/04/17 01:02:25;;;;;;;10.02;4.88;;;;;;;;;;5092350;28;20039;-68
2022/04/17 01:04:52;;;;;;;10.15;4.43;;;;;;;;;;5109263;28;20088;-68
2022/04/17 01:07:22;;;;;;;7.63;4.50;;;;;;;;;;5112656;28;20028;-68
2022/04/17 01:09:49;;;;;;;6.85;4.20;;;;;;;;;;5112599;28;20027;-67
2022/04/17 01:12:17;;;;;;;7.63;4.20;;;;;;;;;;5107746;28;20470;-68
2022/04/17 01:14:44;;;;;;;7.53;4.60;;;;;;;;;;5107011;28;20522;-67
2022/04/17 01:17:12;;;;;;;12.70;4.57;;;;;;;;;;5107092;28;20099;-67
2022/04/17 01:19:39;;;;;;;5.70;3.87;;;;;;;;;;5107380;28;20028;-68
2022/04/17 01:22:10;;;;;;;5.97;3.70;;;;;;;;;;5107349;28;20122;-67
2022/04/17 01:27:24;;;;;;;6.33;3.73;;;;;;;;;;5112006;28;20047;-68
2022/04/17 01:29:53;;;;;;;8.10;4.50;;;;;;;;;;5112650;28;20019;-67
2022/04/17 01:32:21;;;;;;;9.43;4.77;;;;;;;;;;5112563;28;20050;-68
2022/04/17 01:34:47;;;;;;;6.83;4.40;;;;;;;;;;5111913;28;20077;-67
2022/04/17 01:37:14;;;;;;;11.40;4.60;;;;;;;;;;5107312;28;20023;-68
2022/04/17 01:39:41;;;;;;;6.07;4.00;;;;;;;;;;5107220;28;20032;-67
2022/04/17 01:42:08;;;;;;;8.93;5.03;;;;;;;;;;5108687;28;20382;-68
2022/04/17 01:44:35;;;;;;;7.93;4.50;;;;;;;;;;5110784;28;20028;-68
2022/04/17 01:47:02;;;;;;;7.50;4.80;;;;;;;;;;5111382;28;20094;-67
2022/04/17 01:49:29;;;;;;;6.83;4.47;;;;;;;;;;5116393;28;20027;-67
2022/04/17 01:51:56;;;;;;;7.53;4.37;;;;;;;;;;5116184;28;20099;-67
2022/04/17 01:54:25;;;;;;;5.80;3.93;;;;;;;;;;5116036;28;20031;-67
2022/04/17 01:56:52;;;;;;;6.40;4.10;;;;;;;;;;5116341;28;20466;-67
2022/04/17 01:59:19;;;;;;;10.57;4.73;;;;;;;;;;5116186;28;20032;-67
2022/04/17 02:01:46;;;;;;;7.53;4.40;;;;;;;;;;5111806;28;20027;-67
2022/04/17 02:04:13;;;;;;;7.10;4.73;;;;;;;;;;5110857;28;20492;-68
2022/04/17 02:06:40;;;;;;;8.93;4.60;;;;;;;;;;5111048;28;20170;-67
2022/04/17 02:09:08;;;;;;;6.67;4.93;;;;;;;;;;5110749;28;20020;-67
2022/04/17 02:11:35;;;;;;;8.70;4.97;;;;;;;;;;5110694;28;20093;-68
2022/04/17 02:14:01;;;;;;;9.03;4.47;;;;;;;;;;5115203;28;20106;-67
2022/04/17 02:16:28;;;;;;;8.77;5.70;;;;;;;;;;5115504;28;20043;-68
2022/04/17 02:18:55;;;;;;;9.60;5.57;;;;;;;;;;5115523;28;20028;-67
2022/04/17 02:21:22;;;;;;;10.83;5.00;;;;;;;;;;5115876;28;20085;-67
2022/04/17 02:23:49;;;;;;;15.37;8.13;;;;;;;;;;5115776;28;20325;-67
2022/04/17 02:26:17;;;;;;;13.23;9.90;;;;;;;;;;5112297;28;20024;-69
2022/04/17 02:28:44;;;;;;;15.33;9.67;;;;;;;;;;5110541;28;20066;-69
2022/04/17 02:31:11;;;;;;;14.77;9.63;;;;;;;;;;5110597;28;20019;-69
2022/04/17 02:33:38;;;;;;;15.27;9.93;;;;;;;;;;5110477;28;20015;-69
2022/04/17 02:36:05;;;;;;;18.80;11.93;;;;;;;;;;5109839;28;20479;-69
2022/04/17 02:38:32;;;;;;;17.50;11.73;;;;;;;;;;5113488;28;20034;-69
2022/04/17 02:40:59;;;;;;;15.87;11.93;;;;;;;;;;5115390;28;20035;-69
2022/04/17 02:43:25;;;;;;;16.33;11.37;;;;;;;;;;5115257;28;20038;-69
2022/04/17 02:45:52;;;;;;;14.00;10.17;;;;;;;;;;5115225;28;20433;-69
2022/04/17 02:48:19;;;;;;;17.23;8.83;;;;;;;;;;5115300;28;20024;-69
2022/04/17 02:50:47;;;;;;;17.63;8.77;;;;;;;;;;5112971;28;20024;-70
2022/04/17 02:53:14;;;;;;;13.43;7.30;;;;;;;;;;5110079;28;20111;-69
2022/04/17 02:55:40;;;;;;;13.03;6.70;;;;;;;;;;5109379;28;20088;-69
2022/04/17 02:58:07;;;;;;;8.83;5.33;;;;;;;;;;5110242;28;20027;-69
2022/04/17 03:05:35;;;;;;;9.23;5.03;;;;;;;;;;5109746;28;20035;-69
2022/04/17 03:06:05;;;;;;;11.30;8.57;;;;;;;;;;5114623;28;20070;-69
2022/04/17 03:08:32;;;;;;;17.60;8.50;;;;;;;;;;5114760;28;20023;-69
2022/04/17 03:10:59;;;;;;;13.33;9.10;;;;;;;;;;5114770;28;20036;-69
2022/04/17 03:13:26;;;;;;;14.13;10.13;;;;;;;;;;5115041;28;20531;-69
2022/04/17 03:15:52;;;;;;;23.53;9.50;;;;;;;;;;5111819;28;20034;-69
2022/04/17 03:18:19;;;;;;;14.90;10.13;;;;;;;;;;5109515;28;20058;-69
2022/04/17 03:20:46;;;;;;;12.43;9.37;;;;;;;;;;5109716;28;20016;-69
2022/04/17 03:23:14;;;;;;;14.20;10.87;;;;;;;;;;5108810;28;20350;-67
2022/04/17 03:25:41;;;;;;;15.80;11.83;;;;;;;;;;5109450;28;20023;-67
2022/04/17 03:28:08;;;;;;;17.17;11.17;;;;;;;;;;5112184;28;20023;-67
2022/04/17 03:30:35;;;;;;;16.63;12.33;;;;;;;;;;5114177;28;20059;-67
2022/04/17 03:33:02;;;;;;;17.83;12.70;;;;;;;;;;5114431;28;20024;-67
2022/04/17 03:35:30;;;;;;;14.50;11.47;;;;;;;;;;5114278;28;20103;-67
2022/04/17 03:37:57;;;;;;;22.70;13.00;;;;;;;;;;5114426;28;20027;-66
2022/04/17 03:40:24;;;;;;;16.77;11.70;;;;;;;;;;5112043;28;20028;-66
2022/04/17 03:42:51;;;;;;;18.60;11.57;;;;;;;;;;5109124;28;20390;-67
2022/04/17 03:45:17;;;;;;;15.50;10.47;;;;;;;;;;5109500;28;20024;-67
2022/04/17 03:47:45;;;;;;;18.13;10.67;;;;;;;;;;5109086;28;20012;-67
2022/04/17 03:50:12;;;;;;;12.93;8.37;;;;;;;;;;5108835;28;20023;-66
2022/04/17 03:52:40;;;;;;;15.97;10.30;;;;;;;;;;5110452;28;20023;-67
2022/04/17 03:55:07;;;;;;;14.47;10.20;;;;;;;;;;5114119;28;20020;-67
2022/04/17 03:57:34;;;;;;;14.50;9.50;;;;;;;;;;5113446;28;20042;-67
2022/04/17 04:00:00;;;;;;;11.87;8.87;;;;;;;;;;5113619;28;20019;-66
2022/04/17 04:02:30;;;;;;;15.83;9.63;;;;;;;;;;5113673;28;20023;-67
2022/04/17 04:04:57;;;;;;;12.37;7.83;;;;;;;;;;5112684;28;20019;-67
2022/04/17 04:07:24;;;;;;;10.63;8.10;;;;;;;;;;5108837;28;20030;-67
2022/04/17 04:09:51;;;;;;;12.60;8.03;;;;;;;;;;5108279;28;20478;-67
2022/04/17 04:12:18;;;;;;;14.07;8.03;;;;;;;;;;5108769;28;20035;-67
2022/04/17 04:14:45;;;;;;;9.77;7.67;;;;;;;;;;5108308;28;20100;-66
2022/04/17 04:17:12;;;;;;;10.80;7.80;;;;;;;;;;5109452;28;20028;-66
2022/04/17 04:19:39;;;;;;;10.47;8.13;;;;;;;;;;5113275;28;20122;-66
2022/04/17 04:22:05;;;;;;;10.77;7.57;;;;;;;;;;5113455;28;20119;-67
2022/04/17 04:24:32;;;;;;;13.07;7.93;;;;;;;;;;5113405;28;20489;-67
2022/04/17 04:29:43;;;;;;;;;;;;;;;;;;5113350;28;20043;-67
2022/04/17 04:32:10;;;;;;;11.30;8.30;;;;;;;;;;5108217;28;20350;-66
2022/04/17 04:34:37;;;;;;;11.63;8.27;;;;;;;;;;5108322;28;20431;-67
2022/04/17 04:37:04;;;;;;;12.50;8.60;;;;;;;;;;5107079;28;20302;-67
2022/04/17 04:39:31;;;;;;;11.20;8.27;;;;;;;;;;5106562;28;20036;-67
2022/04/17 04:41:57;;;;;;;10.87;8.00;;;;;;;;;;5108387;28;20490;-66
2022/04/17 04:44:24;;;;;;;8.53;6.67;;;;;;;;;;5112836;28;20374;-67
2022/04/17 04:46:51;;;;;;;11.80;8.03;;;;;;;;;;5112811;28;20147;-66
2022/04/17 04:49:30;;;;;;;13.83;8.60;;;;;;;;;;5113240;28;20027;-66
2022/04/17 04:52:00;;;;;;;10.33;8.03;;;;;;;;;;5113308;28;20024;-69
2022/04/17 04:54:28;;;;;;;9.63;7.37;;;;;;;;;;5113086;28;20027;-68
2022/04/17 04:56:54;;;;;;;14.30;8.93;;;;;;;;;;5107928;28;20031;-67
2022/04/17 04:59:21;;;;;;;11.90;8.97;;;;;;;;;;5107809;28;20378;-66
2022/04/17 05:01:49;;;;;;;13.30;8.27;;;;;;;;;;5108098;28;20027;-66
2022/04/17 05:04:20;;;;;;;11.47;8.37;;;;;;;;;;5108247;28;20459;-66
2022/04/17 05:06:47;;;;;;;11.97;8.23;;;;;;;;;;5107796;28;20023;-67
2022/04/17 05:09:13;;;;;;;12.90;8.33;;;;;;;;;;5112724;28;20034;-66
2022/04/17 05:11:40;;;;;;;10.43;6.97;;;;;;;;;;5112672;28;20110;-66
2022/04/17 05:14:09;;;;;;;11.47;7.97;;;;;;;;;;5112751;28;20370;-65
2022/04/17 05:16:36;;;;;;;14.77;8.90;;;;;;;;;;5111435;28;20533;-65
2022/04/17 05:19:24;;;;;;;12.07;7.40;;;;;;;;;;5112292;28;20023;-66
2022/04/17 05:21:57;;;;;;;12.73;8.27;;;;;;;;;;5107941;28;20027;-66
2022/04/17 05:24:23;;;;;;;12.60;9.00;;;;;;;;;;5107757;28;20027;-66
2022/04/17 05:26:51;;;;;;;13.73;8.00;;;;;;;;;;5107229;28;20469;-67
2022/04/17 05:29:18;;;;;;;10.73;7.73;;;;;;;;;;5107734;28;20408;-66
2022/04/17 05:31:45;;;;;;;9.20;6.93;;;;;;;;;;5107943;28;20076;-67
2022/04/17 05:34:11;;;;;;;10.30;7.33;;;;;;;;;;5112528;28;20031;-66
2022/04/17 05:36:38;;;;;;;10.37;6.80;;;;;;;;;;5112529;28;20026;-66
2022/04/17 05:39:06;;;;;;;9.73;7.60;;;;;;;;;;5112444;28;20106;-66
2022/04/17 05:41:33;;;;;;;10.30;7.03;;;;;;;;;;5112433;28;20054;-69
2022/04/17 05:44:00;;;;;;;11.60;7.50;;;;;;;;;;5111899;28;20047;-68
2022/04/17 05:46:35;;;;;;;10.50;6.57;;;;;;;;;;5107772;28;20047;-67
2022/04/17 05:49:01;;;;;;;;;;;;;;;;;;5108145;28;20030;-67
2022/04/17 05:51:28;;;;;;;13.63;7.73;;;;;;;;;;5107487;28;19969;-66
2022/04/17 05:53:55;;;;;;;9.30;6.97;;;;;;;;;;5107598;28;20486;-66
2022/04/17 05:56:21;;;;;;;10.90;7.27;;;;;;;;;;5107286;28;20479;-66
2022/04/17 05:58:48;;;;;;;12.10;7.57;;;;;;;;;;5111758;28;20042;-66
2022/04/17 06:01:15;;;;;;;9.57;6.73;;;;;;;;;;5112294;28;20148;-66
2022/04/17 06:03:41;;;;;;;10.93;7.30;;;;;;;;;;5112225;28;20032;-66
2022/04/17 06:06:08;;;;;;;9.73;6.67;;;;;;;;;;5111901;28;20024;-66
2022/04/17 06:08:35;;;;;;;10.67;6.80;;;;;;;;;;5112190;28;20366;-66
2022/04/17 06:11:02;;;;;;;8.80;5.87;;;;;;;;;;5108573;28;20028;-66
2022/04/17 06:13:28;;;;;;;10.90;7.03;;;;;;;;;;5107398;28;20065;-67
2022/04/17 06:15:55;;;;;;;11.40;6.97;;;;;;;;;;5106919;28;20043;-66
2022/04/17 06:18:22;;;;;;;7.53;5.53;;;;;;;;;;5107390;28;20062;-66
2022/04/17 06:20:48;;;;;;;14.00;6.67;;;;;;;;;;5107140;28;20024;-67
2022/04/17 06:23:15;;;;;;;9.90;6.00;;;;;;;;;;5110870;28;20023;-67
2022/04/17 06:25:41;;;;;;;11.73;6.57;;;;;;;;;;5111448;28;20030;-66
2022/04/17 06:28:08;;;;;;;9.10;5.63;;;;;;;;;;5113386;28;20092;-66
2022/04/17 06:30:35;;;;;;;9.20;5.70;;;;;;;;;;5115501;28;20117;-66
2022/04/17 06:33:02;;;;;;;12.87;6.50;;;;;;;;;;5115643;28;20019;-66
2022/04/17 06:35:29;;;;;;;9.73;6.13;;;;;;;;;;5112608;28;20362;-65
2022/04/17 06:37:59;;;;;;;12.43;6.33;;;;;;;;;;5110803;28;20486;-66
2022/04/17 06:40:30;;;;;;;7.90;5.80;;;;;;;;;;5110451;28;20093;-66
2022/04/17 06:42:58;;;;;;;8.50;5.87;;;;;;;;;;5110441;28;20027;-66
2022/04/17 06:45:25;;;;;;;9.33;6.23;;;;;;;;;;5110250;28;20032;-66
2022/04/17 06:47:52;;;;;;;9.63;6.27;;;;;;;;;;5113791;28;20077;-66
2022/04/17 06:50:19;;;;;;;8.70;5.97;;;;;;;;;;5115041;28;20497;-65
2022/04/17 06:52:46;;;;;;;10.07;5.27;;;;;;;;;;5115504;28;20026;-66
2022/04/17 06:55:13;;;;;;;9.23;6.20;;;;;;;;;;5115084;28;20081;-66
2022/04/17 06:57:49;;;;;;;9.63;5.47;;;;;;;;;;5115269;28;20039;-66
2022/04/17 07:00:17;;;;;;;7.83;5.43;;;;;;;;;;5112542;28;20032;-66
2022/04/17 07:02:44;;;;;;;11.63;6.30;;;;;;;;;;5110023;28;20359;-66
2022/04/17 07:05:12;;;;;;;10.93;6.60;;;;;;;;;;5109627;28;20039;-66
2022/04/17 07:07:39;;;;;;;9.43;6.10;;;;;;;;;;5109965;28;20054;-65
2022/04/17 07:10:06;;;;;;;9.00;6.40;;;;;;;;;;5110214;28;20483;-65
2022/04/17 07:12:34;;;;;;;10.63;6.37;;;;;;;;;;5112908;28;20023;-65
2022/04/17 07:15:01;;;;;;;10.53;7.50;;;;;;;;;;5114372;28;20020;-66
2022/04/17 07:17:34;;;;;;;12.57;7.30;;;;;;;;;;5094952;28;20402;-65
2022/04/17 07:20:01;;;;;;;11.23;7.50;;;;;;;;;;5114363;28;20128;-66
2022/04/17 07:22:28;;;;;;;11.43;7.23;;;;;;;;;;5114851;28;20176;-65
2022/04/17 07:24:57;;;;;;;10.23;7.00;;;;;;;;;;5091972;28;20032;-65
2022/04/17 07:27:25;;;;;;;10.47;6.20;;;;;;;;;;5089588;28;20028;-65
2022/04/17 07:29:52;;;;;;;14.10;7.27;;;;;;;;;;5089437;28;20024;-65
2022/04/17 07:32:19;;;;;;;9.20;6.57;;;;;;;;;;5089602;28;20126;-65
2022/04/17 07:34:46;;;;;;;8.10;5.93;;;;;;;;;;5107184;28;20019;-65
2022/04/17 07:37:13;;;;;;;10.60;6.43;;;;;;;;;;5111493;28;20046;-65
2022/04/17 07:39:39;;;;;;;8.30;6.40;;;;;;;;;;5113323;28;20023;-64
2022/04/17 07:42:06;;;;;;;8.10;5.77;;;;;;;;;;5114260;28;20042;-64
2022/04/17 07:44:35;;;;;;;11.90;6.33;;;;;;;;;;5114350;28;20526;-64
2022/04/17 07:47:02;;;;;;;11.30;6.03;;;;;;;;;;5113121;28;20449;-65
2022/04/17 07:49:28;;;;;;;11.67;5.77;;;;;;;;;;5112704;28;20557;-64
2022/04/17 07:51:55;;;;;;;9.07;5.67;;;;;;;;;;5109226;28;20394;-62
2022/04/17 07:54:22;;;;;;;9.10;5.43;;;;;;;;;;5105314;28;20051;-63
2022/04/17 07:56:49;;;;;;;9.17;5.97;;;;;;;;;;5094175;28;20035;-63
2022/04/17 07:59:15;;;;;;;8.33;5.47;;;;;;;;;;5097715;28;20028;-63
2022/04/17 08:01:45;;;;;;;9.53;5.93;;;;;;;;;;5104932;28;20376;-64
2022/04/17 08:04:11;;;;;;;9.87;5.17;;;;;;;;;;5104592;28;20034;-63
2022/04/17 08:06:38;;;;;;;9.20;5.73;;;;;;;;;;5096686;28;20140;-65
2022/04/17 08:09:05;;;;;;;8.40;5.60;;;;;;;;;;5110591;28;20028;-62
2022/04/17 08:11:31;;;;;;;8.83;5.63;;;;;;;;;;5113202;28;20015;-62
2022/04/17 08:13:58;;;;;;;7.03;4.93;;;;;;;;;;5112326;28;20023;-62
2022/04/17 08:16:25;;;;;;;9.70;5.50;;;;;;;;;;5108837;28;20042;-61
2022/04/17 08:18:52;;;;;;;10.10;5.80;;;;;;;;;;5108328;28;20533;-61
2022/04/17 08:21:18;;;;;;;8.83;6.23;;;;;;;;;;5108653;28;20023;-62
2022/04/17 08:23:45;;;;;;;8.67;5.40;;;;;;;;;;5108772;28;20631;-63
2022/04/17 08:26:12;;;;;;;8.27;5.63;;;;;;;;;;5109642;28;20065;-62
2022/04/17 08:28:38;;;;;;;7.23;4.50;;;;;;;;;;5113122;28;20019;-62
2022/04/17 08:31:06;;;;;;;6.67;4.90;;;;;;;;;;5112617;28;20016;-61
2022/04/17 08:33:33;;;;;;;9.27;5.50;;;;;;;;;;5100785;28;20123;-61
2022/04/17 08:35:59;;;;;;;7.70;5.17;;;;;;;;;;5113365;28;20101;-61
2022/04/17 08:38:26;;;;;;;8.33;5.03;;;;;;;;;;5095393;28;20024;-61
2022/04/17 08:40:53;;;;;;;11.60;5.60;;;;;;;;;;5088124;28;20028;-61
2022/04/17 08:43:22;;;;;;;9.90;4.67;;;;;;;;;;5087960;28;20032;-62
2022/04/17 08:45:53;;;;;;;11.33;5.30;;;;;;;;;;5087660;28;20059;-61
2022/04/17 08:48:20;;;;;;;8.33;4.73;;;;;;;;;;5088039;28;20031;-62
2022/04/17 08:50:47;;;;;;;7.87;4.40;;;;;;;;;;5107332;28;20026;-62
2022/04/17 08:53:18;;;;;;;6.87;4.10;;;;;;;;;;5112977;28;20081;-62
2022/04/17 08:55:45;;;;;;;7.33;4.70;;;;;;;;;;5112909;28;20106;-62
2022/04/17 08:58:12;;;;;;;9.23;4.37;;;;;;;;;;5112963;28;20020;-62
2022/04/17 09:00:38;;;;;;;8.07;4.30;;;;;;;;;;5112644;28;20031;-62
2022/04/17 09:03:09;;;;;;;8.07;5.00;;;;;;;;;;5112883;28;20034;-62
2022/04/17 09:05:37;;;;;;;11.77;4.60;;;;;;;;;;5108167;28;20095;-62
2022/04/17 09:08:14;;;;;;;11.10;4.60;;;;;;;;;;5108019;28;20563;-62
2022/04/17 09:10:40;;;;;;;8.73;4.80;;;;;;;;;;5107997;28;20110;-62
2022/04/17 09:13:07;;;;;;;6.03;4.03;;;;;;;;;;5107943;28;20016;-62
2022/04/17 09:15:35;;;;;;;11.83;5.43;;;;;;;;;;5108016;28;20020;-62
2022/04/17 09:18:02;;;;;;;9.37;6.13;;;;;;;;;;5112657;28;20047;-63
2022/04/17 09:20:29;;;;;;;10.87;5.60;;;;;;;;;;5113258;28;20347;-62
2022/04/17 09:22:58;;;;;;;8.20;5.20;;;;;;;;;;5112845;28;20019;-63
2022/04/17 09:25:28;;;;;;;8.30;4.97;;;;;;;;;;5112504;28;20049;-62
2022/04/17 09:28:01;;;;;;;12.73;6.43;;;;;;;;;;5112904;28;20011;-62
2022/04/17 09:30:28;;;;;;;9.20;4.90;;;;;;;;;;5107743;28;20474;-62
2022/04/17 09:32:56;;;;;;;8.97;5.57;;;;;;;;;;5107733;28;20028;-63
2022/04/17 09:35:24;;;;;;;12.60;5.00;;;;;;;;;;5107660;28;20024;-62
2022/04/17 09:37:54;;;;;;;10.30;5.23;;;;;;;;;;5107579;28;20035;-63
2022/04/17 09:40:21;;;;;;;7.60;5.00;;;;;;;;;;5107792;28;20374;-62
2022/04/17 09:42:49;;;;;;;7.70;4.77;;;;;;;;;;5112326;28;20035;-63
2022/04/17 09:45:16;;;;;;;9.33;5.63;;;;;;;;;;5112676;28;20024;-62
2022/04/17 09:47:58;;;;;;;11.37;6.23;;;;;;;;;;5112454;28;20622;-62
2022/04/17 09:50:32;;;;;;;9.37;6.40;;;;;;;;;;5112467;28;20020;-62
2022/04/17 09:52:59;;;;;;;10.45;6.32;;;;;;;;;;5112291;28;20099;-62
2022/04/17 09:55:31;;;;;;;11.60;6.77;;;;;;;;;;5107298;28;20030;-62
2022/04/17 09:58:00;;;;;;;9.97;7.03;;;;;;;;;;5107545;28;20477;-63
2022/04/17 10:00:27;;;;;;;11.60;6.50;;;;;;;;;;5107428;28;20038;-62
2022/04/17 10:02:54;;;;;;;8.90;5.53;;;;;;;;;;5108607;28;20024;-61
2022/04/17 10:05:21;;;;;;;10.60;6.03;;;;;;;;;;5112040;28;20543;-61
2022/04/17 10:07:48;;;;;;;9.33;5.10;;;;;;;;;;5116203;28;20031;-61
2022/04/17 10:10:16;;;;;;;11.10;5.37;;;;;;;;;;5115812;28;20024;-61
2022/04/17 10:12:47;;;;;;;9.73;6.00;;;;;;;;;;5116198;28;20049;-62
2022/04/17 10:15:14;;;;;;;8.60;5.30;;;;;;;;;;5116257;28;20366;-61
2022/04/17 10:17:42;;;;;;;10.93;6.20;;;;;;;;;;5116251;28;20386;-61
2022/04/17 10:20:11;;;;;;;11.33;5.70;;;;;;;;;;5111335;28;20466;-60
2022/04/17 10:22:38;;;;;;;10.40;5.90;;;;;;;;;;5111135;28;20080;-61
2022/04/17 10:25:06;;;;;;;7.50;4.80;;;;;;;;;;5110524;28;20027;-61
2022/04/17 10:27:43;;;;;;;12.37;5.40;;;;;;;;;;5111113;28;20069;-60
2022/04/17 10:30:17;;;;;;;9.33;5.37;;;;;;;;;;5111474;28;20019;-61
2022/04/17 10:33:02;;;;;;;7.97;4.27;;;;;;;;;;5115783;28;20027;-61
2022/04/17 10:35:45;;;;;;;10.70;5.30;;;;;;;;;;5115505;28;20020;-60
2022/04/17 10:38:30;;;;;;;12.90;6.63;;;;;;;;;;5115699;28;20081;-60
2022/04/17 10:41:04;;;;;;;21.05;9.65;;;;;;;;;;5115529;28;20024;-60
2022/04/17 10:43:35;;;;;;;11.37;6.57;;;;;;;;;;5113265;28;20043;-61
2022/04/17 10:46:19;;;;;;;13.57;7.33;;;;;;;;;;5110580;28;20046;-62
2022/04/17 10:49:00;;;;;;;14.18;7.32;;;;;;;;;;5110685;28;20024;-62
2022/04/17 10:51:32;;;;;;;20.00;9.27;;;;;;;;;;5110555;28;20022;-62
2022/04/17 10:54:03;;;;;;;14.70;7.70;;;;;;;;;;5110828;28;20032;-61
2022/04/17 10:56:33;;;;;;;17.33;7.50;;;;;;;;;;5114145;28;20489;-62
2022/04/17 10:59:01;;;;;;;24.73;11.17;;;;;;;;;;5115220;28;20638;-62
2022/04/17 11:01:42;;;;;;;14.80;7.67;;;;;;;;;;5115166;28;20028;-62
2022/04/17 11:04:18;;;;;;;13.63;6.40;;;;;;;;;;5115185;28;20400;-62
2022/04/17 11:06:45;;;;;;;14.90;6.90;;;;;;;;;;5115106;28;20102;-62
2022/04/17 11:09:20;;;;;;;14.23;6.17;;;;;;;;;;5111537;28;20019;-62
2022/04/17 11:11:47;;;;;;;12.30;6.82;;;;;;;;;;5110166;28;20115;-62
2022/04/17 11:14:16;;;;;;;15.03;8.47;;;;;;;;;;5108720;28;20436;-62
2022/04/17 11:16:53;;;;;;;11.87;6.20;;;;;;;;;;5109905;28;20031;-62
2022/04/17 11:19:40;;;;;;;19.07;9.47;;;;;;;;;;5110123;28;20015;-63
2022/04/17 11:22:09;;;;;;;19.50;9.17;;;;;;;;;;5114640;28;20802;-62
2022/04/17 11:24:54;;;;;;;16.43;8.67;;;;;;;;;;5114935;28;20742;-63
2022/04/17 11:27:45;;;;;;;13.93;7.18;;;;;;;;;;5114716;28;20020;-62
2022/04/17 11:30:11;;;;;;;13.47;7.87;;;;;;;;;;5100680;28;20031;-62
2022/04/17 11:32:41;;;;;;;19.50;9.03;;;;;;;;;;5113726;28;20256;-61
2022/04/17 11:35:12;;;;;;;18.17;8.87;;;;;;;;;;5109567;28;20026;-61
2022/04/17 11:37:39;;;;;;;21.40;12.23;;;;;;;;;;5109645;28;20286;-61
2022/04/17 11:40:13;;;;;;;21.17;10.13;;;;;;;;;;5109493;28;20743;-62
2022/04/17 11:42:44;;;;;;;18.23;8.77;;;;;;;;;;5109272;28;20275;-62
2022/04/17 11:45:11;;;;;;;18.23;9.80;;;;;;;;;;5111378;28;20102;-61
2022/04/17 11:47:42;;;;;;;14.77;7.73;;;;;;;;;;5114327;28;20259;-62
2022/04/17 11:50:10;;;;;;;23.50;8.87;;;;;;;;;;5114267;28;20252;-62
2022/04/17 11:52:37;;;;;;;16.40;7.63;;;;;;;;;;5114083;28;20863;-61
2022/04/17 11:55:04;;;;;;;13.37;6.87;;;;;;;;;;5114037;28;20264;-61
2022/04/17 11:57:32;;;;;;;19.20;9.53;;;;;;;;;;5112929;28;20280;-61
2022/04/17 12:00:00;;;;;;;17.77;8.03;;;;;;;;;;5109180;28;20275;-61
2022/04/17 12:02:28;;;;;;;17.33;6.93;;;;;;;;;;5109217;28;20252;-61
2022/04/17 12:04:55;;;;;;;19.27;8.33;;;;;;;;;;5109149;28;20252;-61
2022/04/17 12:07:23;;;;;;;11.87;6.53;;;;;;;;;;5109055;28;20259;-61
2022/04/17 12:09:50;;;;;;;16.00;7.30;;;;;;;;;;5110398;28;20280;-61
2022/04/17 12:12:20;;;;;;;13.90;6.83;;;;;;;;;;5113348;28;20262;-62
2022/04/17 12:14:53;;;;;;;20.20;8.63;;;;;;;;;;5113617;28;20271;-62
2022/04/17 12:17:21;;;;;;;14.90;7.07;;;;;;;;;;5113702;28;20786;-62
2022/04/17 12:19:51;;;;;;;13.17;7.10;;;;;;;;;;5113655;28;20252;-62
2022/04/17 12:22:18;;;;;;;15.20;6.33;;;;;;;;;;5112560;28;20248;-62
2022/04/17 12:24:45;;;;;;;17.57;7.00;;;;;;;;;;5108210;28;20306;-63
2022/04/17 12:27:19;;;;;;;11.90;5.87;;;;;;;;;;5108237;28;20647;-62
2022/04/17 12:29:47;;;;;;;11.33;5.63;;;;;;;;;;5108664;28;20767;-62
2022/04/17 12:32:17;;;;;;;15.03;5.47;;;;;;;;;;5108705;28;20256;-62
2022/04/17 12:34:46;;;;;;;14.00;6.47;;;;;;;;;;5110154;28;20256;-62
2022/04/17 12:37:23;;;;;;;19.90;8.27;;;;;;;;;;5113029;28;20288;-62
2022/04/17 12:39:49;;;;;;;12.80;6.93;;;;;;;;;;5113211;28;20665;-63
2022/04/17 12:42:19;;;;;;;10.70;6.20;;;;;;;;;;5113181;28;20264;-61
2022/04/17 12:44:47;;;;;;;11.97;5.57;;;;;;;;;;5113227;28;20268;-60
2022/04/17 12:47:17;;;;;;;17.43;6.03;;;;;;;;;;5112026;28;20260;-61
2022/04/17 12:49:44;;;;;;;11.07;5.70;;;;;;;;;;5108419;28;20610;-62
2022/04/17 12:52:21;;;;;;;18.37;7.37;;;;;;;;;;5108316;28;20263;-61
2022/04/17 12:54:48;;;;;;;11.27;6.27;;;;;;;;;;5108263;28;20343;-61
2022/04/17 12:57:19;;;;;;;12.07;7.00;;;;;;;;;;5108214;28;20319;-61
2022/04/17 12:59:50;;;;;;;15.90;7.33;;;;;;;;;;5110141;28;20244;-61
2022/04/17 13:02:23;;;;;;;17.07;7.27;;;;;;;;;;5112647;28;20787;-61
2022/04/17 13:04:53;;;;;;;8.37;5.67;;;;;;;;;;5112955;28;20276;-61
2022/04/17 13:07:19;;;;;;;11.53;6.50;;;;;;;;;;5112906;28;20252;-60
2022/04/17 13:09:53;;;;;;;14.67;8.17;;;;;;;;;;5112914;28;20297;-61
2022/04/17 13:12:32;;;;;;;14.60;7.57;;;;;;;;;;5111013;28;20627;-62
2022/04/17 13:14:59;;;;;;;13.60;7.70;;;;;;;;;;5108012;28;20806;-62
2022/04/17 13:17:26;;;;;;;20.13;7.60;;;;;;;;;;5107734;28;20034;-62
2022/04/17 13:19:53;;;;;;;10.93;6.87;;;;;;;;;;5107970;28;20023;-61
2022/04/17 13:22:20;;;;;;;13.83;7.63;;;;;;;;;;5107863;28;20042;-62
2022/04/17 13:24:46;;;;;;;10.57;7.27;;;;;;;;;;5110408;28;20020;-61
2022/04/17 13:27:13;;;;;;;19.83;8.20;;;;;;;;;;5112617;28;20107;-61
2022/04/17 13:29:40;;;;;;;11.17;7.27;;;;;;;;;;5112128;28;20020;-62
2022/04/17 13:32:11;;;;;;;15.17;6.90;;;;;;;;;;5112502;28;20047;-62
2022/04/17 13:34:39;;;;;;;11.03;6.97;;;;;;;;;;5112444;28;20015;-62
2022/04/17 13:39:50;;;;;;;9.65;6.18;;;;;;;;;;5111761;28;20042;-61
2022/04/17 13:42:17;;;;;;;10.63;6.23;;;;;;;;;;5111875;28;20088;-62
2022/04/17 13:44:44;;;;;;;11.30;6.83;;;;;;;;;;5112130;28;20667;-62
2022/04/17 13:47:10;;;;;;;10.60;7.30;;;;;;;;;;5111787;28;20012;-62
2022/04/17 13:49:37;;;;;;;13.67;8.20;;;;;;;;;;5114502;28;20539;-62
2022/04/17 13:52:04;;;;;;;15.17;8.37;;;;;;;;;;5116610;28;20084;-62
2022/04/17 13:54:31;;;;;;;17.83;9.87;;;;;;;;;;5116383;28;20026;-62
2022/04/17 13:56:59;;;;;;;16.00;10.27;;;;;;;;;;5115952;28;20082;-61
2022/04/17 13:59:26;;;;;;;20.40;11.80;;;;;;;;;;5116444;28;20019;-61
2022/04/17 14:01:53;;;;;;;17.43;10.17;;;;;;;;;;5111369;28;20106;-62
2022/04/17 14:04:20;;;;;;;23.60;10.63;;;;;;;;;;5091048;28;20548;-62
2022/04/17 14:06:47;;;;;;;19.43;12.60;;;;;;;;;;5091240;28;20471;-62
2022/04/17 14:09:15;;;;;;;18.97;12.13;;;;;;;;;;5090971;28;20093;-61
2022/04/17 14:11:42;;;;;;;19.70;10.20;;;;;;;;;;5090898;28;20051;-64
2022/04/17 14:14:09;;;;;;;18.30;10.30;;;;;;;;;;5105044;28;20095;-63
2022/04/17 14:16:36;;;;;;;21.47;11.53;;;;;;;;;;5095617;28;20040;-64
2022/04/17 14:19:02;;;;;;;18.30;10.97;;;;;;;;;;5106644;28;20023;-65
2022/04/17 14:21:29;;;;;;;22.30;10.50;;;;;;;;;;5099314;28;20538;-62
2022/04/17 14:23:56;;;;;;;15.67;10.50;;;;;;;;;;5095604;28;20498;-63
2022/04/17 14:26:23;;;;;;;16.90;10.03;;;;;;;;;;5105817;28;20016;-63
2022/04/17 14:28:50;;;;;;;21.83;11.07;;;;;;;;;;5110547;28;20393;-63
2022/04/17 14:31:16;;;;;;;19.27;11.33;;;;;;;;;;5111027;28;20420;-64
2022/04/17 14:33:43;;;;;;;16.87;11.77;;;;;;;;;;5110940;28;20434;-64
2022/04/17 14:36:10;;;;;;;17.00;11.53;;;;;;;;;;5110450;28;20028;-65
2022/04/17 14:38:37;;;;;;;18.80;12.57;;;;;;;;;;5104681;28;20028;-64
2022/04/17 14:41:03;;;;;;;15.67;10.47;;;;;;;;;;5095204;28;20042;-64
2022/04/17 14:43:30;;;;;;;19.60;12.13;;;;;;;;;;5104942;28;20031;-63
2022/04/17 14:45:57;;;;;;;16.70;10.33;;;;;;;;;;5115022;28;20031;-63
2022/04/17 14:48:23;;;;;;;19.30;12.40;;;;;;;;;;5115153;28;20023;-65
2022/04/17 14:50:50;;;;;;;16.83;10.47;;;;;;;;;;5114859;28;20088;-64